createdAt,value
2022-08-22T00:01:37.114Z,101730.25
2022-08-22T00:02:48.773Z,101747.16
2022-08-22T00:03:02.257Z,101720.38
2022-08-22T00:04:36.253Z,101727.56
2022-08-22T00:07:11.431Z,101722.63
2022-08-22T00:10:09.096Z,101723.38
2022-08-22T00:12:50.520Z,101723.84
2022-08-22T00:15:47.183Z,101730.41
2022-08-22T00:18:18.293Z,101720.56
2022-08-22T00:20:52.691Z,101723.25
2022-08-22T00:23:30.632Z,101725.94
2022-08-22T00:26:21.999Z,101719.38
2022-08-22T00:28:54.981Z,101718.34
2022-08-22T00:31:21.732Z,101719.25
2022-08-22T00:33:55.500Z,101723.88
2022-08-22T00:36:34.428Z,101730.47
2022-08-22T00:39:10.016Z,101726.72
2022-08-22T00:41:39.411Z,101733.75
2022-08-22T00:44:36.851Z,101727.91
2022-08-22T00:47:19.817Z,101730.31
2022-08-22T00:50:05.747Z,101735.88
2022-08-22T00:53:08.858Z,101731.69
2022-08-22T00:55:50.858Z,101740.94
2022-08-22T00:58:38.782Z,101739.91
2022-08-22T01:01:12.524Z,101738.44
2022-08-22T01:03:46.601Z,101738.13
2022-08-22T01:06:15.995Z,101734.69
2022-08-22T01:09:08.983Z,101729.78
2022-08-22T01:12:05.679Z,101737.44
2022-08-22T01:14:38.367Z,101739.13
2022-08-22T01:17:31.903Z,101738.06
2022-08-22T01:20:30.517Z,101738.81
2022-08-22T01:23:41.721Z,101736.13
2022-08-22T01:26:45.952Z,101732.69
2022-08-22T01:29:40.637Z,101731.22
2022-08-22T01:32:30.991Z,101731.66
2022-08-22T01:35:15.765Z,101736.31
2022-08-22T01:37:56.274Z,101734.97
2022-08-22T01:40:54.262Z,101741.53
2022-08-22T01:43:59.239Z,101737.81
2022-08-22T01:46:57.190Z,101741.72
2022-08-22T01:49:41.995Z,101736.03
2022-08-22T01:52:15.570Z,101737.56
2022-08-22T01:55:03.689Z,101738.91
2022-08-22T01:57:30.285Z,101735.31
2022-08-22T02:00:07.885Z,101735.16
2022-08-22T02:02:57.546Z,101736.94
2022-08-22T02:05:37.058Z,101734.25
2022-08-22T02:08:18.781Z,101730.84
2022-08-22T02:11:05.945Z,101732.47
2022-08-22T02:13:58.554Z,101735.91
2022-08-22T02:16:31.084Z,101726.38
2022-08-22T02:19:18.471Z,101733.69
2022-08-22T02:21:59.772Z,101734.88
2022-08-22T02:24:37.877Z,101719.38
2022-08-22T02:27:23.598Z,101719.09
2022-08-22T02:30:09.557Z,101718.34
2022-08-22T02:33:02.927Z,101720.28
2022-08-22T02:35:39.958Z,101718.03
2022-08-22T02:38:19.740Z,101728.34
2022-08-22T02:41:07.927Z,101721.03
2022-08-22T02:43:45.128Z,101715.34
2022-08-22T02:46:26.726Z,101715.81
2022-08-22T02:49:09.807Z,101714.63
2022-08-22T02:52:02.410Z,101718.50
2022-08-22T02:54:47.612Z,101721.19
2022-08-22T02:57:22.624Z,101723.13
2022-08-22T03:00:25.014Z,101716.56
2022-08-22T03:03:33.433Z,101717.31
2022-08-22T03:06:28.076Z,101715.06
2022-08-22T03:09:16.412Z,101716.25
2022-08-22T03:12:01.671Z,101712.88
2022-08-22T03:14:34.308Z,101704.50
2022-08-22T03:17:00.739Z,101704.50
2022-08-22T03:19:49.432Z,101714.06
2022-08-22T03:22:33.361Z,101714.06
2022-08-22T03:25:07.446Z,101701.09
2022-08-22T03:28:00.198Z,101697.19
2022-08-22T03:30:40.595Z,101701.81
2022-08-22T03:33:28.843Z,101696.47
2022-08-22T03:36:03.903Z,101696.91
2022-08-22T03:38:33.276Z,101686.63
2022-08-22T03:41:34.062Z,101689.31
2022-08-22T03:44:38.844Z,101685.41
2022-08-22T03:47:26.581Z,101687.38
2022-08-22T03:50:24.402Z,101694.97
2022-08-22T03:53:18.958Z,101681.69
2022-08-22T03:56:04.796Z,101684.84
2022-08-22T03:59:00.761Z,101690.94
2022-08-22T04:01:50.443Z,101690.50
2022-08-22T04:05:00.799Z,101692.00
2022-08-22T04:07:52.846Z,101698.09
2022-08-22T04:10:35.121Z,101693.47
2022-08-22T04:13:05.659Z,101698.41
2022-08-22T04:15:53.783Z,101689.59
2022-08-22T04:18:23.433Z,101688.84
2022-08-22T04:21:19.588Z,101690.34
2022-08-22T04:24:13.317Z,101686.16
2022-08-22T04:27:12.418Z,101688.09
2022-08-22T04:29:45.180Z,101696.63
2022-08-22T04:32:37.452Z,101697.34
2022-08-22T04:35:09.612Z,101699.31
2022-08-22T04:37:59.256Z,101704.97
2022-08-22T04:40:34.317Z,101700.78
2022-08-22T04:43:09.939Z,101698.84
2022-08-22T04:45:46.160Z,101698.84
2022-08-22T04:48:27.862Z,101704.66
2022-08-22T04:51:18.512Z,101702.72
2022-08-22T04:53:47.999Z,101706.16
2022-08-22T04:56:23.974Z,101708.09
2022-08-22T04:59:03.031Z,101709.28
2022-08-22T05:01:46.651Z,101712.72
2022-08-22T05:04:20.286Z,101711.25
2022-08-22T05:06:53.657Z,101710.78
2022-08-22T05:09:27.304Z,101714.22
2022-08-22T05:11:58.011Z,101712.56
2022-08-22T05:14:37.010Z,101711.19
2022-08-22T05:17:07.535Z,101705.06
2022-08-22T05:19:40.055Z,101708.94
2022-08-22T05:22:14.281Z,101705.81
2022-08-22T05:24:46.351Z,101703.41
2022-08-22T05:27:25.710Z,101725.19
2022-08-22T05:30:00.484Z,101717.88
2022-08-22T05:32:37.911Z,101723.53
2022-08-22T05:35:08.606Z,101724.00
2022-08-22T05:37:48.563Z,101733.38
2022-08-22T05:40:23.249Z,101735.63
2022-08-22T05:42:50.731Z,101740.53
2022-08-22T05:45:18.672Z,101745.91
2022-08-22T05:47:49.621Z,101746.94
2022-08-22T05:50:40.037Z,101741.41
2022-08-22T05:53:12.097Z,101746.78
2022-08-22T05:56:02.852Z,101742.44
2022-08-22T05:58:52.212Z,101739.75
2022-08-22T06:01:36.977Z,101736.47
2022-08-22T06:04:44.721Z,101740.94
2022-08-22T06:07:31.974Z,101737.63
2022-08-22T06:10:20.640Z,101746.25
2022-08-22T06:13:00.757Z,101744.13
2022-08-22T06:15:40.336Z,101747.69
2022-08-22T06:18:12.297Z,101748.72
2022-08-22T06:20:47.932Z,101760.34
2022-08-22T06:23:20.723Z,101754.81
2022-08-22T06:25:51.604Z,101757.34
2022-08-22T06:28:25.339Z,101758.38
2022-08-22T06:30:55.628Z,101762.28
2022-08-22T06:33:27.452Z,101754.50
2022-08-22T06:36:25.707Z,101766.13
2022-08-22T06:39:18.477Z,101764.84
2022-08-22T06:41:54.451Z,101770.16
2022-08-22T06:44:25.981Z,101774.00
2022-08-22T06:46:55.456Z,101773.66
2022-08-22T06:49:24.940Z,101772.56
2022-08-22T06:51:52.334Z,101771.44
2022-08-22T06:54:24.306Z,101782.88
2022-08-22T06:56:52.625Z,101774.44
2022-08-22T06:59:26.741Z,101782.75
2022-08-22T07:02:03.310Z,101780.97
2022-08-22T07:04:30.603Z,101782.31
2022-08-22T07:06:59.875Z,101787.50
2022-08-22T07:09:28.386Z,101778.50
2022-08-22T07:11:57.607Z,101781.00
2022-08-22T07:14:28.352Z,101783.63
2022-08-22T07:16:59.335Z,101778.59
2022-08-22T07:19:30.700Z,101786.09
2022-08-22T07:21:58.591Z,101773.28
2022-08-22T07:24:32.969Z,101768.72
2022-08-22T07:27:08.797Z,101769.16
2022-08-22T07:29:45.935Z,101774.69
2022-08-22T07:32:30.876Z,101772.16
2022-08-22T07:35:21.620Z,101769.44
2022-08-22T07:37:58.305Z,101770.53
2022-08-22T07:40:48.368Z,101766.69
2022-08-22T07:43:53.972Z,101765.00
2022-08-22T07:46:37.887Z,101766.41
2022-08-22T07:49:23.195Z,101769.00
2022-08-22T07:51:55.433Z,101767.97
2022-08-22T07:54:34.858Z,101769.84
2022-08-22T07:57:07.124Z,101752.28
2022-08-22T07:59:37.553Z,101756.88
2022-08-22T08:02:11.287Z,101747.38
2022-08-22T08:04:40.697Z,101742.72
2022-08-22T08:07:10.623Z,101745.28
2022-08-22T08:09:42.670Z,101742.59
2022-08-22T08:12:12.157Z,101733.78
2022-08-22T08:14:44.012Z,101727.38
2022-08-22T08:17:28.906Z,101725.41
2022-08-22T08:20:02.967Z,101731.31
2022-08-22T08:22:31.023Z,101729.09
2022-08-22T08:25:00.375Z,101733.28
2022-08-22T08:27:50.312Z,101719.69
2022-08-22T08:30:23.299Z,101725.84
2022-08-22T08:33:12.086Z,101725.53
2022-08-22T08:36:02.482Z,101722.06
2022-08-22T08:38:36.858Z,101730.13
2022-08-22T08:41:39.559Z,101726.91
2022-08-22T08:44:18.133Z,101723.72
2022-08-22T08:47:29.415Z,101719.47
2022-08-22T08:50:17.422Z,101717.41
2022-08-22T08:52:53.354Z,101723.88
2022-08-22T08:55:27.380Z,101723.78
2022-08-22T08:58:11.907Z,101723.53
2022-08-22T09:00:42.032Z,101726.75
2022-08-22T09:03:15.545Z,101720.94
2022-08-22T09:06:14.098Z,101727.03
2022-08-22T09:09:02.012Z,101722.31
2022-08-22T09:12:01.451Z,101724.75
2022-08-22T09:14:33.439Z,101721.59
2022-08-22T09:17:38.196Z,101711.66
2022-08-22T09:20:18.059Z,101720.03
2022-08-22T09:23:18.583Z,101709.38
2022-08-22T09:26:25.865Z,101714.03
2022-08-22T09:28:58.882Z,101706.91
2022-08-22T09:34:34.101Z,101704.16
2022-08-22T09:37:29.193Z,101709.81
2022-08-22T09:40:24.774Z,101714.75
2022-08-22T09:43:10.883Z,101711.00
2022-08-22T09:45:52.488Z,101702.13
2022-08-22T09:48:21.506Z,101698.09
2022-08-22T09:51:04.634Z,101706.13
2022-08-22T09:54:11.274Z,101697.72
2022-08-22T09:57:14.423Z,101695.22
2022-08-22T09:59:47.132Z,101694.09
2022-08-22T10:02:50.241Z,101695.03
2022-08-22T10:05:43.820Z,101690.31
2022-08-22T10:08:46.046Z,101687.13
2022-08-22T10:11:18.843Z,101689.19
2022-08-22T10:14:07.991Z,101687.88
2022-08-22T10:16:43.512Z,101684.59
2022-08-22T10:19:18.152Z,101680.34
2022-08-22T10:22:17.542Z,101682.84
2022-08-22T10:25:15.063Z,101679.81
2022-08-22T10:27:55.092Z,101666.50
2022-08-22T10:30:40.913Z,101673.44
2022-08-22T10:33:19.806Z,101672.25
2022-08-22T10:36:13.045Z,101662.03
2022-08-22T10:38:47.081Z,101652.72
2022-08-22T10:41:27.867Z,101659.69
2022-08-22T10:44:10.902Z,101656.06
2022-08-22T10:46:43.750Z,101656.97
2022-08-22T10:49:28.739Z,101651.50
2022-08-22T10:52:15.703Z,101647.25
2022-08-22T10:54:43.003Z,101650.78
2022-08-22T10:57:24.688Z,101645.72
2022-08-22T10:59:58.304Z,101651.72
2022-08-22T11:02:34.722Z,101656.03
2022-08-22T11:05:13.881Z,101645.75
2022-08-22T11:07:53.304Z,101648.75
2022-08-22T11:10:40.527Z,101655.69
2022-08-22T11:13:30.919Z,101653.44
2022-08-22T11:16:04.489Z,101659.03
2022-08-22T11:18:40.814Z,101658.59
2022-08-22T11:21:16.513Z,101662.47
2022-08-22T11:23:48.787Z,101652.78
2022-08-22T11:26:41.687Z,101645.38
2022-08-22T11:29:23.642Z,101647.75
2022-08-22T11:32:05.885Z,101638.28
2022-08-22T11:34:49.375Z,101638.13
2022-08-22T11:37:40.303Z,101631.81
2022-08-22T11:40:54.123Z,101641.03
2022-08-22T11:43:52.622Z,101631.09
2022-08-22T11:46:29.738Z,101632.03
2022-08-22T11:49:27.302Z,101634.25
2022-08-22T11:52:31.273Z,101636.06
2022-08-22T11:55:13.599Z,101634.78
2022-08-22T11:57:47.835Z,101623.53
2022-08-22T12:00:24.781Z,101630.44
2022-08-22T12:03:14.566Z,101623.72
2022-08-22T12:05:52.401Z,101620.16
2022-08-22T12:08:30.856Z,101623.91
2022-08-22T12:11:34.379Z,101622.59
2022-08-22T12:14:06.416Z,101624.53
2022-08-22T12:17:03.161Z,101618.50
2022-08-22T12:20:15.114Z,101623.91
2022-08-22T12:22:53.526Z,101616.91
2022-08-22T12:25:56.917Z,101619.03
2022-08-22T12:28:27.970Z,101615.47
2022-08-22T12:31:12.858Z,101616.78
2022-08-22T12:34:12.207Z,101611.75
2022-08-22T12:36:58.198Z,101610.34
2022-08-22T12:39:46.741Z,101617.06
2022-08-22T12:42:36.611Z,101606.63
2022-08-22T12:45:35.456Z,101599.28
2022-08-22T12:48:36.790Z,101599.69
2022-08-22T12:51:21.430Z,101605.69
2022-08-22T12:54:08.524Z,101590.13
2022-08-22T12:57:02.813Z,101596.84
2022-08-22T12:59:38.196Z,101596.38
2022-08-22T13:02:28.003Z,101594.25
2022-08-22T13:05:00.110Z,101583.66
2022-08-22T13:07:32.842Z,101586.41
2022-08-22T13:10:21.847Z,101591.06
2022-08-22T13:12:54.106Z,101587.22
2022-08-22T13:15:20.633Z,101580.66
2022-08-22T13:17:51.752Z,101578.19
2022-08-22T13:20:27.427Z,101577.25
2022-08-22T13:22:55.569Z,101580.91
2022-08-22T13:25:26.127Z,101582.31
2022-08-22T13:28:01.195Z,101581.31
2022-08-22T13:30:37.608Z,101576.72
2022-08-22T13:33:22.361Z,101586.06
2022-08-22T13:36:13.607Z,101573.72
2022-08-22T13:38:46.302Z,101567.31
2022-08-22T13:41:18.722Z,101561.31
2022-08-22T13:44:08.864Z,101563.47
2022-08-22T13:46:48.189Z,101559.50
2022-08-22T13:49:39.747Z,101566.25
2022-08-22T13:52:32.774Z,101561.94
2022-08-22T13:55:17.819Z,101552.19
2022-08-22T13:57:53.507Z,101548.91
2022-08-22T14:00:29.110Z,101557.13
2022-08-22T14:03:08.048Z,101556.78
2022-08-22T14:05:59.045Z,101559.81
2022-08-22T14:08:45.960Z,101557.25
2022-08-22T14:11:27.857Z,101554.00
2022-08-22T14:14:01.104Z,101554.72
2022-08-22T14:16:37.131Z,101552.09
2022-08-22T14:19:27.237Z,101554.41
2022-08-22T14:21:59.566Z,101540.03
2022-08-22T14:24:38.760Z,101546.03
2022-08-22T14:27:15.883Z,101547.00
2022-08-22T14:30:03.819Z,101539.47
2022-08-22T14:32:41.794Z,101539.88
2022-08-22T14:35:34.625Z,101535.81
2022-08-22T14:38:29.715Z,101531.50
2022-08-22T14:41:07.771Z,101532.75
2022-08-22T14:43:34.848Z,101524.66
2022-08-22T14:46:12.479Z,101527.38
2022-08-22T14:49:11.060Z,101526.84
2022-08-22T14:51:46.372Z,101515.94
2022-08-22T14:54:21.244Z,101526.13
2022-08-22T14:56:52.018Z,101516.69
2022-08-22T14:59:36.967Z,101514.69
2022-08-22T15:02:17.437Z,101518.69
2022-08-22T15:04:50.184Z,101515.66
2022-08-22T15:07:27.826Z,101521.53
2022-08-22T15:10:32.887Z,101512.81
2022-08-22T15:13:03.212Z,101504.63
2022-08-22T15:15:32.785Z,101510.63
2022-08-22T15:18:28.067Z,101504.63
2022-08-22T15:21:11.301Z,101504.44
2022-08-22T15:23:44.984Z,101504.53
2022-08-22T15:26:40.972Z,101504.34
2022-08-22T15:29:20.564Z,101502.81
2022-08-22T15:31:51.521Z,101495.19
2022-08-22T15:34:41.729Z,101504.00
2022-08-22T15:37:20.482Z,101503.91
2022-08-22T15:40:13.485Z,101495.09
2022-08-22T15:42:47.133Z,101494.28
2022-08-22T15:45:37.247Z,101493.09
2022-08-22T15:48:33.549Z,101492.78
2022-08-22T15:51:01.740Z,101492.16
2022-08-22T15:53:43.486Z,101494.16
2022-08-22T15:56:13.006Z,101491.66
2022-08-22T15:58:48.824Z,101485.78
2022-08-22T16:01:22.142Z,101482.44
2022-08-22T16:04:12.745Z,101487.03
2022-08-22T16:06:56.578Z,101483.69
2022-08-22T16:09:29.272Z,101481.06
2022-08-22T16:11:58.267Z,101469.44
2022-08-22T16:14:49.786Z,101472.78
2022-08-22T16:17:28.373Z,101472.06
2022-08-22T16:20:19.332Z,101471.59
2022-08-22T16:22:58.561Z,101467.03
2022-08-22T16:26:03.241Z,101463.38
2022-08-22T16:29:08.038Z,101460.75
2022-08-22T16:31:43.314Z,101452.28
2022-08-22T16:34:21.473Z,101461.69
2022-08-22T16:37:03.165Z,101456.56
2022-08-22T16:39:44.008Z,101456.03
2022-08-22T16:42:13.323Z,101459.41
2022-08-22T16:45:10.538Z,101448.09
2022-08-22T16:47:41.889Z,101449.78
2022-08-22T16:50:22.216Z,101444.56
2022-08-22T16:52:54.165Z,101444.66
2022-08-22T16:55:29.836Z,101446.13
2022-08-22T16:58:14.544Z,101450.41
2022-08-22T17:00:57.877Z,101451.78
2022-08-22T17:03:36.071Z,101449.84
2022-08-22T17:06:14.705Z,101445.03
2022-08-22T17:09:03.332Z,101446.69
2022-08-22T17:11:51.889Z,101442.50
2022-08-22T17:14:46.032Z,101443.03
2022-08-22T17:17:32.932Z,101443.47
2022-08-22T17:20:26.049Z,101444.00
2022-08-22T17:22:58.067Z,101432.78
2022-08-22T17:25:32.583Z,101439.03
2022-08-22T17:28:18.778Z,101435.88
2022-08-22T17:31:04.833Z,101436.19
2022-08-22T17:33:40.471Z,101438.69
2022-08-22T17:36:44.769Z,101443.94
2022-08-22T17:39:11.314Z,101436.91
2022-08-22T17:42:03.167Z,101443.59
2022-08-22T17:44:45.598Z,101451.34
2022-08-22T17:47:21.634Z,101446.94
2022-08-22T17:49:59.909Z,101449.22
2022-08-22T17:52:49.188Z,101452.53
2022-08-22T17:55:26.682Z,101456.34
2022-08-22T17:58:13.006Z,101447.53
2022-08-22T18:01:11.193Z,101448.56
2022-08-22T18:03:46.808Z,101453.66
2022-08-22T18:06:24.102Z,101456.97
2022-08-22T18:09:17.046Z,101458.31
2022-08-22T18:11:51.941Z,101457.94
2022-08-22T18:14:53.963Z,101462.19
2022-08-22T18:17:30.289Z,101454.63
2022-08-22T18:20:22.908Z,101456.44
2022-08-22T18:22:55.389Z,101456.78
2022-08-22T18:25:22.119Z,101457.59
2022-08-22T18:28:23.303Z,101458.38
2022-08-22T18:31:02.447Z,101460.69
2022-08-22T18:33:34.513Z,101459.81
2022-08-22T18:36:14.155Z,101468.75
2022-08-22T18:38:48.632Z,101465.13
2022-08-22T18:41:49.414Z,101465.94
2022-08-22T18:44:28.424Z,101470.66
2022-08-22T18:46:58.376Z,101480.59
2022-08-22T18:49:24.728Z,101473.75
2022-08-22T18:52:07.132Z,101479.22
2022-08-22T18:54:49.572Z,101475.06
2022-08-22T18:57:43.912Z,101470.47
2022-08-22T19:00:16.626Z,101480.91
2022-08-22T19:03:16.334Z,101492.53
2022-08-22T19:06:30.404Z,101492.84
2022-08-22T19:09:15.674Z,101501.53
2022-08-22T19:12:11.683Z,101502.09
2022-08-22T19:15:08.137Z,101508.31
2022-08-22T19:17:55.798Z,101510.81
2022-08-22T19:20:53.601Z,101513.81
2022-08-22T19:23:31.881Z,101518.75
2022-08-22T19:26:28.025Z,101524.72
2022-08-22T19:29:29.140Z,101521.28
2022-08-22T19:32:01.979Z,101518.09
2022-08-22T19:34:32.566Z,101523.28
2022-08-22T19:37:32.948Z,101521.56
2022-08-22T19:40:42.043Z,101521.09
2022-08-22T19:43:31.568Z,101523.31
2022-08-22T19:46:00.718Z,101523.28
2022-08-22T19:48:31.787Z,101518.63
2022-08-22T19:51:13.106Z,101518.38
2022-08-22T19:53:48.886Z,101513.47
2022-08-22T19:56:31.041Z,101511.97
2022-08-22T19:59:12.966Z,101514.66
2022-08-22T20:01:57.966Z,101515.88
2022-08-22T20:04:50.336Z,101510.22
2022-08-22T20:07:43.605Z,101508.72
2022-08-22T20:10:19.072Z,101510.19
2022-08-22T20:13:10.260Z,101511.88
2022-08-22T20:16:02.659Z,101513.31
2022-08-22T20:18:53.703Z,101513.78
2022-08-22T20:21:43.983Z,101504.69
2022-08-22T20:24:27.552Z,101516.44
2022-08-22T20:27:13.236Z,101516.16
2022-08-22T20:29:46.535Z,101509.75
2022-08-22T20:32:16.659Z,101503.34
2022-08-22T20:34:44.889Z,101505.03
2022-08-22T20:37:32.324Z,101508.72
2022-08-22T20:40:10.117Z,101501.09
2022-08-22T20:43:00.381Z,101502.53
2022-08-22T20:45:29.552Z,101496.84
2022-08-22T20:47:57.514Z,101497.53
2022-08-22T20:50:26.147Z,101489.13
2022-08-22T20:53:21.916Z,101498.94
2022-08-22T20:55:54.826Z,101500.84
2022-08-22T20:58:25.385Z,101498.41
2022-08-22T21:00:56.281Z,101501.31
2022-08-22T21:03:28.463Z,101498.84
2022-08-22T21:05:55.039Z,101491.44
2022-08-22T21:08:24.966Z,101492.63
2022-08-22T21:11:18.087Z,101497.00
2022-08-22T21:13:44.993Z,101499.91
2022-08-22T21:16:15.519Z,101498.44
2022-08-22T21:18:46.115Z,101498.44
2022-08-22T21:21:28.165Z,101494.53
2022-08-22T21:24:01.055Z,101496.22
2022-08-22T21:26:50.548Z,101498.41
2022-08-22T21:29:16.955Z,101491.00
2022-08-22T21:31:50.049Z,101491.72
2022-08-22T21:34:43.917Z,101487.56
2022-08-22T21:37:45.387Z,101490.97
2022-08-22T21:40:35.072Z,101487.00
2022-08-22T21:43:08.882Z,101485.25
2022-08-22T21:45:38.551Z,101490.41
2022-08-22T21:48:35.229Z,101491.13
2022-08-22T21:51:27.160Z,101483.25
2022-08-22T21:54:18.463Z,101487.16
2022-08-22T21:56:45.705Z,101484.38
2022-08-22T21:59:25.045Z,101486.09
2022-08-22T22:01:52.589Z,101485.06
2022-08-22T22:04:22.547Z,101488.72
2022-08-22T22:06:48.965Z,101489.66
2022-08-22T22:09:18.124Z,101486.72
2022-08-22T22:11:44.585Z,101485.22
2022-08-22T22:14:11.041Z,101488.88
2022-08-22T22:16:38.336Z,101481.78
2022-08-22T22:19:07.434Z,101480.28
2022-08-22T22:21:34.034Z,101485.16
2022-08-22T22:24:00.461Z,101477.00
2022-08-22T22:26:28.536Z,101481.84
2022-08-22T22:28:55.049Z,101489.66
2022-08-22T22:31:21.627Z,101485.22
2022-08-22T22:33:48.366Z,101476.41
2022-08-22T22:36:19.755Z,101489.34
2022-08-22T22:38:46.677Z,101484.16
2022-08-22T22:41:13.316Z,101488.00
2022-08-22T22:43:39.821Z,101482.09
2022-08-22T22:46:06.463Z,101485.75
2022-08-22T22:48:33.261Z,101488.91
2022-08-22T22:51:05.621Z,101487.88
2022-08-22T22:53:40.362Z,101492.34
2022-08-22T22:56:13.081Z,101490.84
2022-08-22T22:58:40.423Z,101493.81
2022-08-22T23:01:09.600Z,101488.91
2022-08-22T23:03:36.157Z,101496.72
2022-08-22T23:06:02.673Z,101496.72
2022-08-22T23:08:29.121Z,101492.53
2022-08-22T23:10:55.619Z,101498.88
2022-08-22T23:13:22.047Z,101496.09
2022-08-22T23:15:48.472Z,101486.81
2022-08-22T23:18:14.882Z,101498.78
2022-08-22T23:20:41.342Z,101490.44
2022-08-22T23:23:07.793Z,101491.84
2022-08-22T23:25:34.366Z,101492.06
2022-08-22T23:28:00.985Z,101489.34
2022-08-22T23:30:27.546Z,101489.63
2022-08-22T23:32:55.586Z,101487.88
2022-08-22T23:35:22.032Z,101494.19
2022-08-22T23:37:48.480Z,101484.63
2022-08-22T23:40:15.068Z,101492.72
2022-08-22T23:42:41.945Z,101481.84
2022-08-22T23:45:08.820Z,101480.59
2022-08-22T23:47:35.247Z,101475.66
2022-08-22T23:50:06.511Z,101477.16
2022-08-22T23:52:33.316Z,101476.88
2022-08-22T23:54:59.743Z,101470.00
2022-08-22T23:57:27.342Z,101472.63
2022-08-22T23:59:57.898Z,101468.66
